Marshallton, Pennsylvania
Current Conditions -  °F | °C
As of 5:53 PM on Thursday 23 Oct 2014 (Local Time) from KSEG Reporting Station
Overcast Overcast  
Wind Chill: 16°   Ceiling: 4200
Heat Index: 16°   Visibility: 10mi
Dew Point:   Wind: 17mph
Humidity: 54%   Direction: 330°NNW
Pressure: 29.88"   Gusts: 25mph
Location:  40.7842°N, 76.5797°W
Report Text: KSEG 232153Z AUTO 33015G22KT 10SM OVC042 16/07 A2988 RMK AO2 SLP117 T01610067
Loading
Personal Weather Stations






























Interactive Weather Map
Tropical Storm Tracking
New forecast layout! Learn more

10-Day Weather Forecast

Advertisements
Track Severe Weather on mobile